createdAt,value
2022-09-20T00:02:20.486Z,6.47
2022-09-20T00:07:22.384Z,5.57
2022-09-20T00:12:26.886Z,5.78
2022-09-20T00:17:33.098Z,9.00
2022-09-20T00:22:40.908Z,8.18
2022-09-20T00:27:48.964Z,5.35
2022-09-20T00:32:53.692Z,2.95
2022-09-20T00:37:58.368Z,6.85
2022-09-20T00:43:00.182Z,8.70
2022-09-20T00:48:11.047Z,11.70
2022-09-20T00:53:32.729Z,5.15
2022-09-20T00:58:38.629Z,5.35
2022-09-20T01:03:45.572Z,3.03
2022-09-20T01:08:56.417Z,6.05
2022-09-20T01:14:00.783Z,5.95
2022-09-20T01:19:31.885Z,10.10
2022-09-20T01:25:03.602Z,7.72
2022-09-20T01:30:18.037Z,6.28
2022-09-20T01:35:21.377Z,5.90
2022-09-20T01:40:46.662Z,3.85
2022-09-20T01:45:52.274Z,5.80
2022-09-20T01:51:06.679Z,6.37
2022-09-20T01:56:48.423Z,12.07
2022-09-20T02:02:07.609Z,7.57
2022-09-20T02:07:40.267Z,6.20
2022-09-20T02:12:57.774Z,8.20
2022-09-20T02:18:16.295Z,7.60
2022-09-20T02:23:52.739Z,7.97
2022-09-20T02:29:03.420Z,14.07
2022-09-20T02:34:18.110Z,11.27
2022-09-20T02:39:24.862Z,9.67
2022-09-20T02:44:39.191Z,10.13
2022-09-20T02:49:46.692Z,12.73
2022-09-20T02:55:00.238Z,8.65
2022-09-20T03:00:19.535Z,14.47
2022-09-20T03:05:36.670Z,12.93
2022-09-20T03:10:45.280Z,8.83
2022-09-20T03:15:52.297Z,10.40
2022-09-20T03:21:34.614Z,10.07
2022-09-20T03:26:48.354Z,12.25
2022-09-20T03:32:33.771Z,12.10
2022-09-20T03:38:00.716Z,7.68
2022-09-20T03:43:43.793Z,12.85
2022-09-20T03:49:09.948Z,13.52
2022-09-20T03:54:24.404Z,8.23
2022-09-20T04:00:03.608Z,9.60
2022-09-20T04:05:16.795Z,11.23
2022-09-20T04:10:46.970Z,11.17
2022-09-20T04:16:02.031Z,9.35
2022-09-20T04:21:19.014Z,11.73
2022-09-20T04:26:26.269Z,11.63
2022-09-20T04:31:34.382Z,17.23
2022-09-20T04:36:57.353Z,10.33
2022-09-20T04:42:15.307Z,14.63
2022-09-20T04:47:36.703Z,13.45
2022-09-20T04:52:46.863Z,10.27
2022-09-20T04:58:17.049Z,15.47
2022-09-20T05:03:40.298Z,17.00
2022-09-20T05:08:56.645Z,8.68
2022-09-20T05:14:03.497Z,11.27
2022-09-20T05:19:26.227Z,16.07
2022-09-20T05:24:30.195Z,12.07
2022-09-20T05:29:56.934Z,9.83
2022-09-20T05:35:01.968Z,13.63
2022-09-20T05:40:22.653Z,15.53
2022-09-20T05:45:47.996Z,14.20
2022-09-20T05:51:01.884Z,13.00
2022-09-20T05:56:29.839Z,11.10
2022-09-20T06:01:40.441Z,9.23
2022-09-20T06:07:18.042Z,10.63
2022-09-20T06:12:26.120Z,16.08
2022-09-20T06:17:39.907Z,10.52
2022-09-20T06:22:49.055Z,10.80
2022-09-20T06:28:22.435Z,15.13
2022-09-20T06:33:25.877Z,10.40
2022-09-20T06:39:09.820Z,15.07
2022-09-20T06:44:11.652Z,8.10
2022-09-20T06:49:16.328Z,13.35
2022-09-20T06:54:21.403Z,6.55
2022-09-20T06:59:23.370Z,9.52
2022-09-20T07:04:26.731Z,6.55
2022-09-20T07:09:31.529Z,8.20
2022-09-20T07:14:33.209Z,5.75
2022-09-20T07:19:38.807Z,11.57
2022-09-20T07:24:46.532Z,9.88
2022-09-20T07:29:49.305Z,9.25
2022-09-20T07:34:50.978Z,12.40
2022-09-20T07:39:55.432Z,7.15
2022-09-20T07:44:57.225Z,10.73
2022-09-20T07:50:02.987Z,14.13
2022-09-20T07:55:06.899Z,12.23
2022-09-20T08:00:13.200Z,17.45
2022-09-20T08:05:21.520Z,13.23
2022-09-20T08:10:26.930Z,9.38
2022-09-20T08:15:37.674Z,10.85
2022-09-20T08:20:43.973Z,12.88
2022-09-20T08:25:49.302Z,11.50
2022-09-20T08:30:55.953Z,8.43
2022-09-20T08:36:13.272Z,12.27
2022-09-20T08:41:21.520Z,10.60
2022-09-20T08:46:41.386Z,10.48
2022-09-20T08:51:50.373Z,8.30
2022-09-20T08:56:55.948Z,7.93
2022-09-20T09:02:04.776Z,13.27
2022-09-20T09:07:15.826Z,10.32
2022-09-20T09:12:25.741Z,10.07
2022-09-20T09:17:34.112Z,12.80
2022-09-20T09:22:39.605Z,8.50
2022-09-20T09:28:03.186Z,7.70
2022-09-20T09:33:32.027Z,6.85
2022-09-20T09:38:41.514Z,7.85
2022-09-20T09:43:43.319Z,10.80
2022-09-20T09:48:49.909Z,9.68
2022-09-20T09:53:51.888Z,7.40
2022-09-20T09:59:28.390Z,7.05
2022-09-20T10:04:49.278Z,7.03
2022-09-20T10:10:26.059Z,4.60
2022-09-20T10:15:43.953Z,9.35
2022-09-20T10:21:06.687Z,7.78
2022-09-20T10:26:32.412Z,8.25
2022-09-20T10:31:41.229Z,6.57
2022-09-20T10:36:56.218Z,6.63
2022-09-20T10:42:29.012Z,8.52
2022-09-20T10:47:44.041Z,8.68
2022-09-20T10:53:03.229Z,5.35
2022-09-20T10:58:57.973Z,8.38
2022-09-20T11:04:11.906Z,7.03
2022-09-20T11:09:21.258Z,8.48
2022-09-20T11:14:40.748Z,4.20
2022-09-20T11:20:07.517Z,8.68
2022-09-20T11:25:29.352Z,7.78
2022-09-20T11:30:34.682Z,6.05
2022-09-20T11:36:06.818Z,10.82
2022-09-20T11:41:13.104Z,11.10
2022-09-20T11:46:29.522Z,9.57
2022-09-20T11:51:41.567Z,10.55
2022-09-20T11:56:53.879Z,8.18
2022-09-20T12:02:00.311Z,10.98
2022-09-20T12:07:08.856Z,5.07
2022-09-20T12:12:27.726Z,7.15
2022-09-20T12:17:47.640Z,10.30
2022-09-20T12:22:55.218Z,11.95
2022-09-20T12:27:59.697Z,7.82
2022-09-20T12:33:19.741Z,11.63
2022-09-20T12:38:31.173Z,8.63
2022-09-20T12:43:41.419Z,10.05
2022-09-20T12:48:43.575Z,7.93
2022-09-20T12:54:06.778Z,12.18
2022-09-20T12:59:24.056Z,9.40
2022-09-20T13:04:55.549Z,9.65
2022-09-20T13:09:59.713Z,6.97
2022-09-20T13:15:06.697Z,11.52
2022-09-20T13:20:19.782Z,7.57
2022-09-20T13:25:25.365Z,9.15
2022-09-20T13:30:33.745Z,10.88
2022-09-20T13:35:40.215Z,10.45
2022-09-20T13:40:49.684Z,9.82
2022-09-20T13:46:00.963Z,8.13
2022-09-20T13:51:23.575Z,7.55
2022-09-20T13:56:30.062Z,8.68
2022-09-20T14:01:37.445Z,7.28
2022-09-20T14:06:39.314Z,6.72
2022-09-20T14:11:43.580Z,10.10
2022-09-20T14:16:49.087Z,9.43
2022-09-20T14:21:52.467Z,5.97
2022-09-20T14:27:31.660Z,9.77
2022-09-20T14:32:40.224Z,7.80
2022-09-20T14:37:47.847Z,6.40
2022-09-20T14:43:01.808Z,8.30
2022-09-20T14:48:26.528Z,5.15
2022-09-20T14:53:37.126Z,5.50
2022-09-20T14:59:05.628Z,4.32
2022-09-20T15:04:21.667Z,6.20
2022-09-20T15:09:23.468Z,4.50
2022-09-20T15:14:27.728Z,6.45
2022-09-20T15:19:31.474Z,7.57
2022-09-20T15:24:35.518Z,6.18
2022-09-20T15:29:37.502Z,4.65
2022-09-20T15:34:39.266Z,6.05
2022-09-20T15:39:41.558Z,6.30
2022-09-20T15:44:43.262Z,5.20
2022-09-20T15:49:52.776Z,5.28
2022-09-20T15:55:00.709Z,5.55
2022-09-20T16:00:02.994Z,6.45
2022-09-20T16:05:11.032Z,4.15
2022-09-20T16:10:14.277Z,3.63
2022-09-20T16:15:16.304Z,6.05
2022-09-20T16:20:18.305Z,5.85
2022-09-20T16:25:22.733Z,7.25
2022-09-20T16:30:29.569Z,10.27
2022-09-20T16:35:31.335Z,9.15
2022-09-20T16:40:33.101Z,6.13
2022-09-20T16:45:36.284Z,3.67
2022-09-20T16:50:40.634Z,3.75
2022-09-20T16:55:44.463Z,9.75
2022-09-20T17:00:46.300Z,5.63
2022-09-20T17:05:48.184Z,6.05
2022-09-20T17:10:55.681Z,3.85
2022-09-20T17:16:16.516Z,6.40
2022-09-20T17:21:18.547Z,5.50
2022-09-20T17:26:33.198Z,4.95
2022-09-20T17:31:41.759Z,5.80
2022-09-20T17:36:45.382Z,11.02
2022-09-20T17:41:51.574Z,6.60
2022-09-20T17:46:57.176Z,7.57
2022-09-20T17:51:59.895Z,5.28
2022-09-20T17:57:07.153Z,7.22
2022-09-20T18:02:09.159Z,3.17
2022-09-20T18:07:11.070Z,5.28
2022-09-20T18:12:17.537Z,9.68
2022-09-20T18:17:21.122Z,4.25
2022-09-20T18:22:25.138Z,5.40
2022-09-20T18:27:30.942Z,4.60
2022-09-20T18:32:35.174Z,11.13
2022-09-20T18:37:38.042Z,5.00
2022-09-20T18:42:40.064Z,3.58
2022-09-20T18:47:43.752Z,4.60
2022-09-20T18:52:54.339Z,5.53
2022-09-20T18:58:00.722Z,8.13
2022-09-20T19:03:14.095Z,4.97
2022-09-20T19:08:34.294Z,2.58
2022-09-20T19:13:51.816Z,6.50
2022-09-20T19:19:28.514Z,4.57
2022-09-20T19:25:07.634Z,5.53
2022-09-20T19:30:13.666Z,9.05
2022-09-20T19:35:28.488Z,5.57
2022-09-20T19:40:47.760Z,5.97
2022-09-20T19:46:27.028Z,6.60
2022-09-20T19:51:35.043Z,8.63
2022-09-20T19:56:48.291Z,8.82
2022-09-20T20:01:50.509Z,16.27
2022-09-20T20:07:08.313Z,17.75
2022-09-20T20:12:30.404Z,21.17
2022-09-20T20:17:54.691Z,20.67
2022-09-20T20:23:01.603Z,26.02
2022-09-20T20:28:06.018Z,18.73
2022-09-20T20:33:16.315Z,15.05
2022-09-20T20:38:25.615Z,13.65
2022-09-20T20:43:36.083Z,11.10
2022-09-20T20:48:40.260Z,12.13
2022-09-20T20:53:47.641Z,11.98
2022-09-20T20:58:49.860Z,16.42
2022-09-20T21:03:56.054Z,17.48
2022-09-20T21:09:03.325Z,17.35
2022-09-20T21:14:07.317Z,12.75
2022-09-20T21:19:15.142Z,15.20
2022-09-20T21:24:23.613Z,13.10
2022-09-20T21:29:30.020Z,10.27
2022-09-20T21:34:38.578Z,8.38
2022-09-20T21:39:43.030Z,8.13
2022-09-20T21:44:47.740Z,5.80
2022-09-20T21:49:49.496Z,6.82
2022-09-20T21:54:54.377Z,6.97
2022-09-20T21:59:58.503Z,8.55
2022-09-20T22:05:00.206Z,6.28
2022-09-20T22:10:09.229Z,9.60
2022-09-20T22:15:16.719Z,7.17
2022-09-20T22:20:19.509Z,8.10
2022-09-20T22:25:28.740Z,8.30
2022-09-20T22:30:30.481Z,7.63
2022-09-20T22:35:32.346Z,5.73
2022-09-20T22:40:36.409Z,4.07
2022-09-20T22:45:39.018Z,3.87
2022-09-20T22:50:43.345Z,5.43
2022-09-20T22:55:47.492Z,4.27
2022-09-20T23:00:51.057Z,4.73
2022-09-20T23:05:57.341Z,6.20
2022-09-20T23:11:02.965Z,10.13
2022-09-20T23:16:18.697Z,5.60
2022-09-20T23:21:23.667Z,10.23
2022-09-20T23:26:29.794Z,5.43
2022-09-20T23:31:36.500Z,5.57
2022-09-20T23:36:41.703Z,7.47
2022-09-20T23:41:48.389Z,4.50
2022-09-20T23:46:54.940Z,7.00
2022-09-20T23:51:58.986Z,7.10
2022-09-20T23:57:02.956Z,8.50
